Weather at Tan Son Nhat International Airport

Public forecast

Using degrees Celsius for public forecast. Weather courtesy of forecast.io.

Current aviation weather report (METAR) for Tan Son Nhat International Airport

Report is more than 6 hours old.

2022/11/14 15:30 (retrieved 2 years ago)

VVTS 141530Z 09004KT 8000 FEW017 SCT050 27/25 Q1010 NOSIG

Aviation forecast (TAF) for Tan Son Nhat International Airport

Forecast is more than 12 hours old.

2023/02/22 18:36 (retrieved 1 year ago)

TAF VVTS 221700Z 2218/2324 VRB03KT 9999 FEW020 SCT050 BECMG 2303/2304 23010KT TEMPO 2306/2312 5000 SHRA SCT015 FEW017CB BKN040